Aviation Digital Data Service (ADDS)

Output produced by METARs form (0157 UTC 26 April 2017)
found at http://www.aviationweather.gov/adds/metars/
 
METAR text: KCOU 260154Z 16008KT 10SM SCT060 22/13 A2945 RMK AO2 SLP968 T02220128
Conditions at: KCOU (COLUMBIA , MO, US) observed 0154 UTC 26 April 2017
Temperature: 22.2°C (72°F)
Dewpoint: 12.8°C (55°F) [RH = 55%]
Pressure (altimeter): 29.45 inches Hg (997.4 mb)
[Sea-level pressure: 996.8 mb]
Winds: from the SSE (160 degrees) at 9 MPH (8 knots; 4.2 m/s)
Visibility: 10 or more miles (16+ km)
Ceiling: at least 12,000 feet AGL
Clouds: scattered clouds at 6000 feet AGL
Weather: no significant weather observed at this time